sensor_id;sensor_type;location;lat;lon;timestamp;pressure;altitude;pressure_sealevel;temperature;humidity
78354;BME280;67629;46.040;18.232;2023-05-14T00:00:30;99887.16;;;11.41;96.11
78354;BME280;67629;46.040;18.232;2023-05-14T00:01:04;99884.31;;;11.36;95.99
78354;BME280;67629;46.040;18.232;2023-05-14T00:01:40;99884.53;;;11.34;95.67
78354;BME280;67629;46.040;18.232;2023-05-14T00:02:14;99880.25;;;11.38;95.96
78354;BME280;67629;46.040;18.232;2023-05-14T00:03:17;99878.00;;;11.35;96.17
78354;BME280;67629;46.040;18.232;2023-05-14T00:04:28;99882.66;;;11.35;95.62
78354;BME280;67629;46.040;18.232;2023-05-14T00:05:00;99877.75;;;11.37;95.62
78354;BME280;67629;46.040;18.232;2023-05-14T00:05:34;99873.69;;;11.39;95.97
78354;BME280;67629;46.040;18.232;2023-05-14T00:06:08;99876.91;;;11.36;95.79
78354;BME280;67629;46.040;18.232;2023-05-14T00:06:43;99873.97;;;11.38;95.76
78354;BME280;67629;46.040;18.232;2023-05-14T00:07:46;99876.13;;;11.36;95.56
78354;BME280;67629;46.040;18.232;2023-05-14T00:08:52;99878.59;;;11.37;95.87
78354;BME280;67629;46.040;18.232;2023-05-14T00:09:58;99871.72;;;11.35;95.81
78354;BME280;67629;46.040;18.232;2023-05-14T00:11:02;99870.03;;;11.34;95.72
78354;BME280;67629;46.040;18.232;2023-05-14T00:11:36;99870.03;;;11.34;95.94
78354;BME280;67629;46.040;18.232;2023-05-14T00:12:10;99867.91;;;11.36;96.13
78354;BME280;67629;46.040;18.232;2023-05-14T00:12:44;99873.59;;;11.34;96.17
78354;BME280;67629;46.040;18.232;2023-05-14T00:13:49;99864.81;;;11.32;96.11
78354;BME280;67629;46.040;18.232;2023-05-14T00:14:55;99852.47;;;11.30;96.49
78354;BME280;67629;46.040;18.232;2023-05-14T00:16:01;99857.19;;;11.34;96.34
78354;BME280;67629;46.040;18.232;2023-05-14T00:17:06;99853.88;;;11.32;96.57
78354;BME280;67629;46.040;18.232;2023-05-14T00:18:13;99862.31;;;11.31;96.18
78354;BME280;67629;46.040;18.232;2023-05-14T00:18:45;99861.25;;;11.32;96.23
78354;BME280;67629;46.040;18.232;2023-05-14T00:19:19;99865.31;;;11.29;96.49
78354;BME280;67629;46.040;18.232;2023-05-14T00:19:53;99870.03;;;11.34;96.49
78354;BME280;67629;46.040;18.232;2023-05-14T00:21:57;99864.00;;;11.32;96.04
78354;BME280;67629;46.040;18.232;2023-05-14T00:23:03;99859.34;;;11.32;96.14
78354;BME280;67629;46.040;18.232;2023-05-14T00:23:35;99864.00;;;11.32;95.96
78354;BME280;67629;46.040;18.232;2023-05-14T00:24:38;99864.00;;;11.32;96.41
78354;BME280;67629;46.040;18.232;2023-05-14T00:25:44;99855.22;;;11.30;96.27
78354;BME280;67629;46.040;18.232;2023-05-14T00:26:18;99848.16;;;11.34;96.01
78354;BME280;67629;46.040;18.232;2023-05-14T00:26:52;99859.09;;;11.34;95.85
78354;BME280;67629;46.040;18.232;2023-05-14T00:28:27;99849.81;;;11.35;95.84
78354;BME280;67629;46.040;18.232;2023-05-14T00:28:58;99855.56;;;11.33;95.85
78354;BME280;67629;46.040;18.232;2023-05-14T00:29:29;99860.78;;;11.35;96.01
78354;BME280;67629;46.040;18.232;2023-05-14T00:29:59;99861.75;;;11.29;96.25
78354;BME280;67629;46.040;18.232;2023-05-14T00:30:30;99853.78;;;11.27;95.84
78354;BME280;67629;46.040;18.232;2023-05-14T00:31:01;99856.75;;;11.26;95.67
78354;BME280;67629;46.040;18.232;2023-05-14T00:31:31;99847.22;;;11.28;95.54
78354;BME280;67629;46.040;18.232;2023-05-14T00:32:02;99856.84;;;11.31;95.61
78354;BME280;67629;46.040;18.232;2023-05-14T00:32:33;99844.00;;;11.31;95.83
78354;BME280;67629;46.040;18.232;2023-05-14T00:33:05;99852.81;;;11.33;95.73
78354;BME280;67629;46.040;18.232;2023-05-14T00:34:40;99851.38;;;11.31;95.89
78354;BME280;67629;46.040;18.232;2023-05-14T00:35:44;99848.91;;;11.29;95.64
78354;BME280;67629;46.040;18.232;2023-05-14T00:36:15;99836.28;;;11.28;95.78
78354;BME280;67629;46.040;18.232;2023-05-14T00:36:45;99845.59;;;11.27;95.87
78354;BME280;67629;46.040;18.232;2023-05-14T00:39:01;99836.28;;;11.28;95.93
78354;BME280;67629;46.040;18.232;2023-05-14T00:40:04;99848.06;;;11.29;95.58
78354;BME280;67629;46.040;18.232;2023-05-14T00:41:09;99843.06;;;11.26;96.17
78354;BME280;67629;46.040;18.232;2023-05-14T00:42:12;99839.84;;;11.29;96.21
78354;BME280;67629;46.040;18.232;2023-05-14T00:43:53;99840.00;;;11.22;96.41
78354;BME280;67629;46.040;18.232;2023-05-14T00:44:56;99840.00;;;11.22;96.36
78354;BME280;67629;46.040;18.232;2023-05-14T00:45:27;99845.72;;;11.21;95.87
78354;BME280;67629;46.040;18.232;2023-05-14T00:46:58;99848.19;;;11.22;96.23
78354;BME280;67629;46.040;18.232;2023-05-14T00:48:36;99833.81;;;11.27;95.73
78354;BME280;67629;46.040;18.232;2023-05-14T00:50:13;99845.22;;;11.24;96.04
78354;BME280;67629;46.040;18.232;2023-05-14T00:51:21;99839.75;;;11.24;95.89
78354;BME280;67629;46.040;18.232;2023-05-14T00:51:56;99831.22;;;11.20;95.79
78354;BME280;67629;46.040;18.232;2023-05-14T00:52:31;99842.97;;;11.21;96.04
78354;BME280;67629;46.040;18.232;2023-05-14T00:53:04;99838.56;;;11.20;95.95
78354;BME280;67629;46.040;18.232;2023-05-14T00:54:16;99840.97;;;11.16;96.20
78354;BME280;67629;46.040;18.232;2023-05-14T00:55:20;99841.91;;;11.22;96.26
78354;BME280;67629;46.040;18.232;2023-05-14T00:56:27;99836.69;;;11.20;95.92
78354;BME280;67629;46.040;18.232;2023-05-14T00:57:40;99830.16;;;11.21;95.95
78354;BME280;67629;46.040;18.232;2023-05-14T00:58:13;99824.69;;;11.21;95.88
78354;BME280;67629;46.040;18.232;2023-05-14T00:59:17;99826.56;;;11.21;96.01
78354;BME280;67629;46.040;18.232;2023-05-14T01:00:20;99826.81;;;11.19;95.95
78354;BME280;67629;46.040;18.232;2023-05-14T01:00:51;99821.34;;;11.19;95.90
78354;BME280;67629;46.040;18.232;2023-05-14T01:02:31;99827.28;;;11.16;96.65
78354;BME280;67629;46.040;18.232;2023-05-14T01:04:09;99825.66;;;11.15;96.14
78354;BME280;67629;46.040;18.232;2023-05-14T01:05:13;99826.00;;;11.19;96.27
78354;BME280;67629;46.040;18.232;2023-05-14T01:06:26;99827.16;;;11.23;95.93
78354;BME280;67629;46.040;18.232;2023-05-14T01:09:59;99822.06;;;11.15;96.27
78354;BME280;67629;46.040;18.232;2023-05-14T01:12:26;99818.03;;;11.17;95.59
78354;BME280;67629;46.040;18.232;2023-05-14T01:15:09;99826.22;;;11.17;96.21
78354;BME280;67629;46.040;18.232;2023-05-14T01:16:13;99817.44;;;11.15;96.51
78354;BME280;67629;46.040;18.232;2023-05-14T01:17:17;99818.03;;;11.17;96.39
78354;BME280;67629;46.040;18.232;2023-05-14T01:17:58;99822.44;;;11.18;96.19
78354;BME280;67629;46.040;18.232;2023-05-14T01:18:31;99818.03;;;11.17;96.18
78354;BME280;67629;46.040;18.232;2023-05-14T01:19:43;99824.81;;;11.15;96.47
78354;BME280;67629;46.040;18.232;2023-05-14T01:20:16;99819.91;;;11.17;96.36
78354;BME280;67629;46.040;18.232;2023-05-14T01:20:53;99823.75;;;11.16;96.54
78354;BME280;67629;46.040;18.232;2023-05-14T01:21:41;99828.13;;;11.17;96.84
78354;BME280;67629;46.040;18.232;2023-05-14T01:22:48;99823.63;;;11.11;96.36
78354;BME280;67629;46.040;18.232;2023-05-14T01:23:51;99829.09;;;11.11;96.92
78354;BME280;67629;46.040;18.232;2023-05-14T01:25:30;99814.47;;;11.17;96.52
78354;BME280;67629;46.040;18.232;2023-05-14T01:28:34;99815.69;;;11.09;96.56
78354;BME280;67629;46.040;18.232;2023-05-14T01:29:42;99821.72;;;11.11;96.45
78354;BME280;67629;46.040;18.232;2023-05-14T01:30:30;99815.78;;;11.14;96.58
78354;BME280;67629;46.040;18.232;2023-05-14T01:31:12;99814.13;;;11.13;96.72
78354;BME280;67629;46.040;18.232;2023-05-14T01:31:49;99818.16;;;11.11;96.40
78354;BME280;67629;46.040;18.232;2023-05-14T01:32:24;99811.63;;;11.12;96.38
78354;BME280;67629;46.040;18.232;2023-05-14T01:33:32;99803.78;;;11.15;96.32
78354;BME280;67629;46.040;18.232;2023-05-14T01:34:10;99813.88;;;11.15;96.24
78354;BME280;67629;46.040;18.232;2023-05-14T01:34:46;99815.41;;;11.11;96.05
78354;BME280;67629;46.040;18.232;2023-05-14T01:35:24;99802.84;;;11.10;96.72
78354;BME280;67629;46.040;18.232;2023-05-14T01:36:00;99806.75;;;11.14;96.41
78354;BME280;67629;46.040;18.232;2023-05-14T01:36:34;99802.38;;;11.13;96.50
78354;BME280;67629;46.040;18.232;2023-05-14T01:37:10;99807.84;;;11.13;96.64
78354;BME280;67629;46.040;18.232;2023-05-14T01:38:49;99806.41;;;11.10;96.67
78354;BME280;67629;46.040;18.232;2023-05-14T01:40:31;99813.53;;;11.11;96.52
78354;BME280;67629;46.040;18.232;2023-05-14T01:41:37;99807.22;;;11.11;96.35
78354;BME280;67629;46.040;18.232;2023-05-14T01:44:21;99808.88;;;11.12;96.19
78354;BME280;67629;46.040;18.232;2023-05-14T01:45:56;99819.25;;;11.10;96.83
78354;BME280;67629;46.040;18.232;2023-05-14T01:46:58;99808.88;;;11.12;96.55
78354;BME280;67629;46.040;18.232;2023-05-14T01:47:29;99813.88;;;11.15;96.65
78354;BME280;67629;46.040;18.232;2023-05-14T01:48:33;99804.00;;;11.14;96.86
78354;BME280;67629;46.040;18.232;2023-05-14T01:49:38;99807.84;;;11.13;96.71
78354;BME280;67629;46.040;18.232;2023-05-14T01:50:09;99804.84;;;11.14;96.66
78354;BME280;67629;46.040;18.232;2023-05-14T01:51:16;99802.38;;;11.13;97.09
78354;BME280;67629;46.040;18.232;2023-05-14T01:52:22;99796.28;;;11.11;97.00
78354;BME280;67629;46.040;18.232;2023-05-14T01:53:25;99796.78;;;11.08;97.12
78354;BME280;67629;46.040;18.232;2023-05-14T01:54:31;99794.28;;;11.06;97.17
78354;BME280;67629;46.040;18.232;2023-05-14T01:55:37;99799.19;;;11.04;97.44
78354;BME280;67629;46.040;18.232;2023-05-14T01:56:42;99797.03;;;11.06;97.27
78354;BME280;67629;46.040;18.232;2023-05-14T01:57:49;99792.88;;;11.04;97.37
78354;BME280;67629;46.040;18.232;2023-05-14T01:58:57;99800.34;;;11.08;97.18
78354;BME280;67629;46.040;18.232;2023-05-14T01:59:31;99796.19;;;11.06;97.63
78354;BME280;67629;46.040;18.232;2023-05-14T02:00:04;99795.03;;;11.02;97.45
78354;BME280;67629;46.040;18.232;2023-05-14T02:00:38;99790.63;;;11.01;97.50
78354;BME280;67629;46.040;18.232;2023-05-14T02:01:12;99798.00;;;11.00;97.31
78354;BME280;67629;46.040;18.232;2023-05-14T02:01:46;99795.63;;;11.04;97.31
78354;BME280;67629;46.040;18.232;2023-05-14T02:02:20;99794.56;;;11.05;97.49
78354;BME280;67629;46.040;18.232;2023-05-14T02:02:54;99792.88;;;11.04;97.76
78354;BME280;67629;46.040;18.232;2023-05-14T02:04:30;99794.91;;;10.97;97.83
78354;BME280;67629;46.040;18.232;2023-05-14T02:05:38;99792.19;;;10.97;97.72
78354;BME280;67629;46.040;18.232;2023-05-14T02:06:44;99788.38;;;10.98;97.88
78354;BME280;67629;46.040;18.232;2023-05-14T02:07:18;99790.75;;;10.94;97.92
78354;BME280;67629;46.040;18.232;2023-05-14T02:07:50;99783.41;;;10.95;98.33
78354;BME280;67629;46.040;18.232;2023-05-14T02:08:24;99779.59;;;10.96;98.23
78354;BME280;67629;46.040;18.232;2023-05-14T02:10:05;99792.19;;;10.97;97.97
78354;BME280;67629;46.040;18.232;2023-05-14T02:11:11;99796.00;;;10.96;98.36
78354;BME280;67629;46.040;18.232;2023-05-14T02:12:19;99793.50;;;10.94;97.98
78354;BME280;67629;46.040;18.232;2023-05-14T02:13:25;99794.09;;;10.96;98.03
78354;BME280;67629;46.040;18.232;2023-05-14T02:15:14;99792.06;;;10.92;97.85
78354;BME280;67629;46.040;18.232;2023-05-14T02:15:46;99782.56;;;10.94;98.13
78354;BME280;67629;46.040;18.232;2023-05-14T02:16:20;99793.75;;;10.93;98.22
78354;BME280;67629;46.040;18.232;2023-05-14T02:16:54;99794.81;;;10.92;98.50
78354;BME280;67629;46.040;18.232;2023-05-14T02:17:27;99797.06;;;10.95;98.59
78354;BME280;67629;46.040;18.232;2023-05-14T02:18:33;99786.72;;;10.97;98.20
78354;BME280;67629;46.040;18.232;2023-05-14T02:19:07;99796.72;;;10.91;98.66
78354;BME280;67629;46.040;18.232;2023-05-14T02:19:39;99778.41;;;10.92;98.52
78354;BME280;67629;46.040;18.232;2023-05-14T02:20:11;99797.06;;;10.95;98.52
78354;BME280;67629;46.040;18.232;2023-05-14T02:21:16;99788.38;;;10.98;98.55
78354;BME280;67629;46.040;18.232;2023-05-14T02:22:24;99789.91;;;10.94;98.34
78354;BME280;67629;46.040;18.232;2023-05-14T02:22:56;99787.31;;;10.99;98.38
78354;BME280;67629;46.040;18.232;2023-05-14T02:23:30;99782.44;;;11.01;98.15
78354;BME280;67629;46.040;18.232;2023-05-14T02:24:02;99783.97;;;10.97;98.21
78354;BME280;67629;46.040;18.232;2023-05-14T02:24:34;99789.13;;;10.93;98.17
78354;BME280;67629;46.040;18.232;2023-05-14T02:25:08;99782.34;;;10.96;97.98
78354;BME280;67629;46.040;18.232;2023-05-14T02:25:43;99786.97;;;10.95;98.35
78354;BME280;67629;46.040;18.232;2023-05-14T02:26:17;99788.88;;;10.95;98.22
78354;BME280;67629;46.040;18.232;2023-05-14T02:26:51;99787.81;;;10.96;98.29
78354;BME280;67629;46.040;18.232;2023-05-14T02:27:54;99788.88;;;10.95;98.39
78354;BME280;67629;46.040;18.232;2023-05-14T02:28:57;99782.47;;;10.89;97.99
78354;BME280;67629;46.040;18.232;2023-05-14T02:30:08;99777.94;;;10.95;98.23
78354;BME280;67629;46.040;18.232;2023-05-14T02:31:18;99777.44;;;10.98;98.19
78354;BME280;67629;46.040;18.232;2023-05-14T02:32:59;99771.28;;;10.91;98.05
78354;BME280;67629;46.040;18.232;2023-05-14T02:34:04;99770.47;;;10.90;98.49
78354;BME280;67629;46.040;18.232;2023-05-14T02:34:37;99775.09;;;10.90;98.53
78354;BME280;67629;46.040;18.232;2023-05-14T02:35:11;99770.13;;;10.86;98.30
78354;BME280;67629;46.040;18.232;2023-05-14T02:35:45;99774.41;;;10.82;98.53
78354;BME280;67629;46.040;18.232;2023-05-14T02:36:17;99777.25;;;10.88;97.97
78354;BME280;67629;46.040;18.232;2023-05-14T02:36:51;99768.44;;;10.85;98.25
78354;BME280;67629;46.040;18.232;2023-05-14T02:37:25;99773.69;;;10.87;98.32
78354;BME280;67629;46.040;18.232;2023-05-14T02:37:58;99765.97;;;10.84;98.54
78354;BME280;67629;46.040;18.232;2023-05-14T02:38:32;99770.47;;;10.90;98.40
78354;BME280;67629;46.040;18.232;2023-05-14T02:39:37;99761.44;;;10.90;98.56
78354;BME280;67629;46.040;18.232;2023-05-14T02:41:27;99769.63;;;10.90;98.11
78354;BME280;67629;46.040;18.232;2023-05-14T02:41:59;99774.16;;;10.84;98.37
78354;BME280;67629;46.040;18.232;2023-05-14T02:42:34;99776.91;;;10.84;98.67
78354;BME280;67629;46.040;18.232;2023-05-14T02:43:08;99778.31;;;10.86;98.61
78354;BME280;67629;46.040;18.232;2023-05-14T02:44:10;99764.06;;;10.84;98.54
78354;BME280;67629;46.040;18.232;2023-05-14T02:45:48;99764.41;;;10.88;98.61
78354;BME280;67629;46.040;18.232;2023-05-14T02:46:52;99765.81;;;10.91;98.37
78354;BME280;67629;46.040;18.232;2023-05-14T02:47:59;99755.88;;;10.84;98.47
78354;BME280;67629;46.040;18.232;2023-05-14T02:49:39;99767.63;;;10.85;98.60
78354;BME280;67629;46.040;18.232;2023-05-14T02:50:13;99760.41;;;10.79;98.83
78354;BME280;67629;46.040;18.232;2023-05-14T02:50:48;99760.25;;;10.85;98.59
78354;BME280;67629;46.040;18.232;2023-05-14T02:51:22;99764.06;;;10.84;98.34
78354;BME280;67629;46.040;18.232;2023-05-14T02:53:05;99756.34;;;10.81;98.52
78354;BME280;67629;46.040;18.232;2023-05-14T02:53:41;99752.06;;;10.85;98.57
78354;BME280;67629;46.040;18.232;2023-05-14T02:55:50;99762.16;;;10.85;98.55
78354;BME280;67629;46.040;18.232;2023-05-14T02:56:24;99754.69;;;10.80;98.50
78354;BME280;67629;46.040;18.232;2023-05-14T02:57:27;99754.44;;;10.82;98.55
78354;BME280;67629;46.040;18.232;2023-05-14T02:58:36;99757.41;;;10.80;98.86
78354;BME280;67629;46.040;18.232;2023-05-14T02:59:43;99751.59;;;10.77;98.62
78354;BME280;67629;46.040;18.232;2023-05-14T03:00:18;99750.78;;;10.76;98.76
78354;BME280;67629;46.040;18.232;2023-05-14T03:00:51;99749.97;;;10.76;99.21
78354;BME280;67629;46.040;18.232;2023-05-14T03:01:24;99750.78;;;10.76;99.16
78354;BME280;67629;46.040;18.232;2023-05-14T03:01:57;99745.66;;;10.80;98.66
78354;BME280;67629;46.040;18.232;2023-05-14T03:02:29;99746.25;;;10.82;98.68
78354;BME280;67629;46.040;18.232;2023-05-14T03:03:03;99745.91;;;10.78;98.67
78354;BME280;67629;46.040;18.232;2023-05-14T03:04:05;99741.16;;;10.74;98.90
78354;BME280;67629;46.040;18.232;2023-05-14T03:05:11;99742.34;;;10.78;99.13
78354;BME280;67629;46.040;18.232;2023-05-14T03:05:45;99740.09;;;10.75;98.78
78354;BME280;67629;46.040;18.232;2023-05-14T03:06:20;99737.09;;;10.76;99.10
78354;BME280;67629;46.040;18.232;2023-05-14T03:07:55;99739.25;;;10.74;99.14
78354;BME280;67629;46.040;18.232;2023-05-14T03:08:59;99737.38;;;10.75;99.24
78354;BME280;67629;46.040;18.232;2023-05-14T03:10:06;99739.84;;;10.76;99.00
78354;BME280;67629;46.040;18.232;2023-05-14T03:11:15;99740.94;;;10.75;98.95
78354;BME280;67629;46.040;18.232;2023-05-14T03:12:51;99744.16;;;10.72;98.49
78354;BME280;67629;46.040;18.232;2023-05-14T03:13:56;99734.38;;;10.76;98.84
78354;BME280;67629;46.040;18.232;2023-05-14T03:14:27;99734.06;;;10.73;99.06
78354;BME280;67629;46.040;18.232;2023-05-14T03:15:02;99737.38;;;10.75;99.07
78354;BME280;67629;46.040;18.232;2023-05-14T03:16:05;99731.06;;;10.74;99.23
78354;BME280;67629;46.040;18.232;2023-05-14T03:17:16;99730.72;;;10.71;98.84
78354;BME280;67629;46.040;18.232;2023-05-14T03:17:50;99732.72;;;10.75;98.52
78354;BME280;67629;46.040;18.232;2023-05-14T03:18:24;99727.97;;;10.71;98.99
78354;BME280;67629;46.040;18.232;2023-05-14T03:18:58;99726.34;;;10.70;99.11
78354;BME280;67629;46.040;18.232;2023-05-14T03:19:32;99730.50;;;10.72;98.83
78354;BME280;67629;46.040;18.232;2023-05-14T03:20:06;99730.22;;;10.74;99.03
78354;BME280;67629;46.040;18.232;2023-05-14T03:20:40;99727.75;;;10.72;99.01
78354;BME280;67629;46.040;18.232;2023-05-14T03:21:14;99730.22;;;10.74;99.12
78354;BME280;67629;46.040;18.232;2023-05-14T03:21:48;99734.63;;;10.75;98.94
78354;BME280;67629;46.040;18.232;2023-05-14T03:22:23;99732.72;;;10.75;99.12
78354;BME280;67629;46.040;18.232;2023-05-14T03:22:57;99731.56;;;10.71;98.93
78354;BME280;67629;46.040;18.232;2023-05-14T03:23:31;99730.72;;;10.71;99.01
78354;BME280;67629;46.040;18.232;2023-05-14T03:24:05;99732.59;;;10.70;98.95
78354;BME280;67629;46.040;18.232;2023-05-14T03:25:12;99720.63;;;10.71;98.88
78354;BME280;67629;46.040;18.232;2023-05-14T03:26:18;99721.09;;;10.68;99.00
78354;BME280;67629;46.040;18.232;2023-05-14T03:26:51;99726.91;;;10.72;99.30
78354;BME280;67629;46.040;18.232;2023-05-14T03:27:23;99718.94;;;10.70;98.96
78354;BME280;67629;46.040;18.232;2023-05-14T03:27:58;99723.59;;;10.70;99.04
78354;BME280;67629;46.040;18.232;2023-05-14T03:29:04;99725.50;;;10.69;98.46
78354;BME280;67629;46.040;18.232;2023-05-14T03:29:38;99731.44;;;10.66;98.77
78354;BME280;67629;46.040;18.232;2023-05-14T03:30:12;99726.81;;;10.67;98.87
78354;BME280;67629;46.040;18.232;2023-05-14T03:31:14;99721.94;;;10.69;99.22
78354;BME280;67629;46.040;18.232;2023-05-14T03:32:19;99722.19;;;10.67;99.21
78354;BME280;67629;46.040;18.232;2023-05-14T03:33:26;99721.38;;;10.67;99.49
78354;BME280;67629;46.040;18.232;2023-05-14T03:34:13;99719.78;;;10.71;99.22
78354;BME280;67629;46.040;18.232;2023-05-14T03:35:20;99717.66;;;10.73;98.99
78354;BME280;67629;46.040;18.232;2023-05-14T03:36:26;99724.41;;;10.70;98.92
78354;BME280;67629;46.040;18.232;2023-05-14T03:37:32;99725.50;;;10.69;98.91
78354;BME280;67629;46.040;18.232;2023-05-14T03:38:37;99728.72;;;10.66;99.04
78354;BME280;67629;46.040;18.232;2023-05-14T03:40:14;99725.25;;;10.71;99.16
78354;BME280;67629;46.040;18.232;2023-05-14T03:40:46;99723.00;;;10.68;98.89
78354;BME280;67629;46.040;18.232;2023-05-14T03:41:20;99725.72;;;10.68;99.36
78354;BME280;67629;46.040;18.232;2023-05-14T03:41:53;99726.34;;;10.70;99.17
78354;BME280;67629;46.040;18.232;2023-05-14T03:42:25;99718.16;;;10.70;99.22
78354;BME280;67629;46.040;18.232;2023-05-14T03:42:58;99722.50;;;10.71;98.94
78354;BME280;67629;46.040;18.232;2023-05-14T03:44:00;99722.78;;;10.69;98.77
78354;BME280;67629;46.040;18.232;2023-05-14T03:45:07;99727.41;;;10.69;99.21
78354;BME280;67629;46.040;18.232;2023-05-14T03:45:39;99725.72;;;10.68;99.19
78354;BME280;67629;46.040;18.232;2023-05-14T03:46:12;99723.34;;;10.71;99.01
78354;BME280;67629;46.040;18.232;2023-05-14T03:47:14;99727.66;;;10.67;99.35
78354;BME280;67629;46.040;18.232;2023-05-14T03:48:53;99717.31;;;10.69;99.13
78354;BME280;67629;46.040;18.232;2023-05-14T03:50:24;99723.84;;;10.68;99.27
78354;BME280;67629;46.040;18.232;2023-05-14T03:51:29;99726.66;;;10.73;99.28
78354;BME280;67629;46.040;18.232;2023-05-14T03:52:37;99727.16;;;10.70;99.16
78354;BME280;67629;46.040;18.232;2023-05-14T03:53:43;99728.81;;;10.71;99.16
78354;BME280;67629;46.040;18.232;2023-05-14T03:54:50;99726.66;;;10.73;99.18
78354;BME280;67629;46.040;18.232;2023-05-14T03:55:56;99722.28;;;10.72;99.68
78354;BME280;67629;46.040;18.232;2023-05-14T03:57:02;99726.56;;;10.68;99.04
78354;BME280;67629;46.040;18.232;2023-05-14T03:57:34;99720.41;;;10.73;99.44
78354;BME280;67629;46.040;18.232;2023-05-14T03:58:08;99722.50;;;10.71;99.06
78354;BME280;67629;46.040;18.232;2023-05-14T03:58:45;99725.72;;;10.68;98.97
78354;BME280;67629;46.040;18.232;2023-05-14T03:59:17;99718.94;;;10.70;99.33
78354;BME280;67629;46.040;18.232;2023-05-14T03:59:51;99724.41;;;10.70;99.06
78354;BME280;67629;46.040;18.232;2023-05-14T04:00:59;99717.06;;;10.71;99.44
78354;BME280;67629;46.040;18.232;2023-05-14T04:02:04;99723.84;;;10.68;98.88
78354;BME280;67629;46.040;18.232;2023-05-14T04:03:10;99716.81;;;10.72;99.37
78354;BME280;67629;46.040;18.232;2023-05-14T04:04:17;99706.88;;;10.66;99.12
78354;BME280;67629;46.040;18.232;2023-05-14T04:05:53;99712.19;;;10.73;99.29
78354;BME280;67629;46.040;18.232;2023-05-14T04:07:02;99719.91;;;10.76;99.35
78354;BME280;67629;46.040;18.232;2023-05-14T04:08:39;99711.38;;;10.72;99.46
78354;BME280;67629;46.040;18.232;2023-05-14T04:10:46;99711.94;;;10.74;99.43
78354;BME280;67629;46.040;18.232;2023-05-14T04:11:53;99716.34;;;10.75;99.27
78354;BME280;67629;46.040;18.232;2023-05-14T04:12:59;99714.19;;;10.77;99.38
78354;BME280;67629;46.040;18.232;2023-05-14T04:14:35;99712.78;;;10.75;98.84
78354;BME280;67629;46.040;18.232;2023-05-14T04:15:41;99712.19;;;10.73;99.29
78354;BME280;67629;46.040;18.232;2023-05-14T04:17:44;99705.16;;;10.77;99.20
78354;BME280;67629;46.040;18.232;2023-05-14T04:18:52;99715.03;;;10.78;99.45
78354;BME280;67629;46.040;18.232;2023-05-14T04:20:28;99708.25;;;10.80;99.56
78354;BME280;67629;46.040;18.232;2023-05-14T04:22:10;99708.72;;;10.77;99.52
78354;BME280;67629;46.040;18.232;2023-05-14T04:23:18;99705.78;;;10.79;99.53
78354;BME280;67629;46.040;18.232;2023-05-14T04:23:52;99708.25;;;10.80;98.98
78354;BME280;67629;46.040;18.232;2023-05-14T04:24:54;99711.22;;;10.79;99.13
78354;BME280;67629;46.040;18.232;2023-05-14T04:26:02;99713.72;;;10.80;99.51
78354;BME280;67629;46.040;18.232;2023-05-14T04:27:09;99707.50;;;10.85;99.29
78354;BME280;67629;46.040;18.232;2023-05-14T04:28:18;99706.09;;;10.82;99.05
78354;BME280;67629;46.040;18.232;2023-05-14T04:28:52;99701.47;;;10.83;99.06
78354;BME280;67629;46.040;18.232;2023-05-14T04:29:24;99714.28;;;10.82;99.06
78354;BME280;67629;46.040;18.232;2023-05-14T04:29:58;99714.41;;;10.88;99.19
78354;BME280;67629;46.040;18.232;2023-05-14T04:31:04;99707.94;;;10.94;98.94
78354;BME280;67629;46.040;18.232;2023-05-14T04:32:11;99707.75;;;10.83;98.88
78354;BME280;67629;46.040;18.232;2023-05-14T04:32:45;99706.09;;;10.82;98.95
78354;BME280;67629;46.040;18.232;2023-05-14T04:33:17;99713.44;;;10.82;99.04
78354;BME280;67629;46.040;18.232;2023-05-14T04:34:52;99712.88;;;10.80;98.87
78354;BME280;67629;46.040;18.232;2023-05-14T04:36:01;99703.25;;;10.77;99.25
78354;BME280;67629;46.040;18.232;2023-05-14T04:37:09;99708.97;;;10.76;99.34
78354;BME280;67629;46.040;18.232;2023-05-14T04:37:43;99708.16;;;10.75;99.18
78354;BME280;67629;46.040;18.232;2023-05-14T04:38:17;99709.31;;;10.79;99.27
78354;BME280;67629;46.040;18.232;2023-05-14T04:38:51;99706.56;;;10.79;99.36
78354;BME280;67629;46.040;18.232;2023-05-14T04:39:23;99709.44;;;10.84;99.44
78354;BME280;67629;46.040;18.232;2023-05-14T04:39:57;99713.56;;;10.87;99.28
78354;BME280;67629;46.040;18.232;2023-05-14T04:41:03;99704.63;;;10.92;99.13
78354;BME280;67629;46.040;18.232;2023-05-14T04:42:38;99702.97;;;10.91;99.38
78354;BME280;67629;46.040;18.232;2023-05-14T04:43:49;99707.00;;;10.88;99.21
78354;BME280;67629;46.040;18.232;2023-05-14T04:44:56;99705.56;;;10.97;99.19
78354;BME280;67629;46.040;18.232;2023-05-14T04:46:02;99710.19;;;10.97;98.85
78354;BME280;67629;46.040;18.232;2023-05-14T04:47:10;99702.81;;;10.97;98.88
78354;BME280;67629;46.040;18.232;2023-05-14T04:48:16;99703.31;;;10.94;99.20
78354;BME280;67629;46.040;18.232;2023-05-14T04:49:22;99701.91;;;10.92;99.02
78354;BME280;67629;46.040;18.232;2023-05-14T04:50:28;99696.91;;;10.88;99.41
78354;BME280;67629;46.040;18.232;2023-05-14T04:51:33;99701.66;;;10.93;99.39
78354;BME280;67629;46.040;18.232;2023-05-14T04:53:10;99698.34;;;10.91;99.16
78354;BME280;67629;46.040;18.232;2023-05-14T04:54:16;99705.69;;;10.91;99.01
78354;BME280;67629;46.040;18.232;2023-05-14T04:55:22;99704.41;;;10.93;98.92
78354;BME280;67629;46.040;18.232;2023-05-14T04:56:58;99705.47;;;10.92;98.88
78354;BME280;67629;46.040;18.232;2023-05-14T04:58:08;99704.50;;;10.98;99.10
78354;BME280;67629;46.040;18.232;2023-05-14T04:59:16;99702.00;;;10.97;99.04
78354;BME280;67629;46.040;18.232;2023-05-14T05:00:23;99697.50;;;10.91;99.23
78354;BME280;67629;46.040;18.232;2023-05-14T05:02:00;99693.56;;;10.98;99.23